createdAt,value
2023-11-23T00:00:02.440Z,46.42
2023-11-23T00:03:06.266Z,46.18
2023-11-23T00:06:09.379Z,45.87
2023-11-23T00:09:13.745Z,45.93
2023-11-23T00:12:16.580Z,45.91
2023-11-23T00:15:19.586Z,46.03
2023-11-23T00:18:22.538Z,45.93
2023-11-23T00:21:25.531Z,45.69
2023-11-23T00:24:29.990Z,45.60
2023-11-23T00:27:33.050Z,45.70
2023-11-23T00:30:35.870Z,45.63
2023-11-23T00:33:38.963Z,45.70
2023-11-23T00:36:42.016Z,45.48
2023-11-23T00:39:46.249Z,45.50
2023-11-23T00:42:49.115Z,45.48
2023-11-23T00:45:51.988Z,45.79
2023-11-23T00:48:55.998Z,45.22
2023-11-23T00:51:58.896Z,45.96
2023-11-23T00:55:05.820Z,46.06
2023-11-23T00:58:08.786Z,46.66
2023-11-23T01:01:15.464Z,46.71
2023-11-23T01:04:18.446Z,46.65
2023-11-23T01:07:21.422Z,46.94
2023-11-23T01:10:26.039Z,47.10
2023-11-23T01:13:28.938Z,47.33
2023-11-23T01:16:31.880Z,47.27
2023-11-23T01:19:34.749Z,47.11
2023-11-23T01:22:37.806Z,47.29
2023-11-23T01:25:42.071Z,47.41
2023-11-23T01:28:44.999Z,47.58
2023-11-23T01:31:47.931Z,47.70
2023-11-23T01:34:50.765Z,47.86
2023-11-23T01:37:53.695Z,47.96
2023-11-23T01:40:57.951Z,47.86
2023-11-23T01:44:01.285Z,47.98
2023-11-23T01:47:05.817Z,48.07
2023-11-23T01:50:10.965Z,48.08
2023-11-23T01:53:15.405Z,48.10
2023-11-23T01:56:21.730Z,48.02
2023-11-23T01:59:24.926Z,48.04
2023-11-23T02:02:28.043Z,48.22
2023-11-23T02:05:30.963Z,47.94
2023-11-23T02:08:33.806Z,48.08
2023-11-23T02:11:38.343Z,48.21
2023-11-23T02:14:43.070Z,48.21
2023-11-23T02:17:46.160Z,48.13
2023-11-23T02:20:49.201Z,48.38
2023-11-23T02:23:52.135Z,48.19
2023-11-23T02:26:58.692Z,48.38
2023-11-23T02:30:01.660Z,48.25
2023-11-23T02:33:05.943Z,48.46
2023-11-23T02:36:09.190Z,48.11
2023-11-23T02:39:12.120Z,48.48
2023-11-23T02:42:16.503Z,48.56
2023-11-23T02:45:19.495Z,48.48
2023-11-23T02:48:22.456Z,48.46
2023-11-23T02:51:26.510Z,48.38
2023-11-23T02:54:29.631Z,48.37
2023-11-23T02:57:34.003Z,48.35
2023-11-23T03:00:36.861Z,48.58
2023-11-23T03:03:40.055Z,48.45
2023-11-23T03:06:43.046Z,48.39
2023-11-23T03:09:45.944Z,48.38
2023-11-23T03:12:50.233Z,48.00
2023-11-23T03:15:53.290Z,47.18
2023-11-23T03:18:56.174Z,47.76
2023-11-23T03:21:59.909Z,47.41
2023-11-23T03:25:02.845Z,47.13
2023-11-23T03:28:08.578Z,47.00
2023-11-23T03:31:11.518Z,46.89
2023-11-23T03:34:14.457Z,46.81
2023-11-23T03:37:18.429Z,46.41
2023-11-23T03:40:21.306Z,46.54
2023-11-23T03:43:25.581Z,46.27
2023-11-23T03:46:28.538Z,46.68
2023-11-23T03:49:31.722Z,46.55
2023-11-23T03:52:34.564Z,46.37
2023-11-23T03:55:37.495Z,46.18
2023-11-23T03:58:41.745Z,46.20
2023-11-23T04:01:48.457Z,46.19
2023-11-23T04:04:51.356Z,45.97
2023-11-23T04:07:54.215Z,45.93
2023-11-23T04:10:57.030Z,46.10
2023-11-23T04:14:01.318Z,45.97
2023-11-23T04:17:04.145Z,45.92
2023-11-23T04:20:07.731Z,46.00
2023-11-23T04:23:12.746Z,45.84
2023-11-23T04:26:15.795Z,45.97
2023-11-23T04:29:20.185Z,45.84
2023-11-23T04:32:23.436Z,45.81
2023-11-23T04:35:26.288Z,45.97
2023-11-23T04:38:29.215Z,45.80
2023-11-23T04:41:32.062Z,45.88
2023-11-23T04:44:36.343Z,45.87
2023-11-23T04:47:39.185Z,46.06
2023-11-23T04:50:42.654Z,45.93
2023-11-23T04:53:45.756Z,45.76
2023-11-23T04:56:51.663Z,45.62
2023-11-23T04:59:56.053Z,45.59
2023-11-23T05:02:59.102Z,45.88
2023-11-23T05:06:02.733Z,45.53
2023-11-23T05:09:05.838Z,45.94
2023-11-23T05:12:09.163Z,45.92
2023-11-23T05:15:13.542Z,46.47
2023-11-23T05:18:17.181Z,46.82
2023-11-23T05:21:20.177Z,46.81
2023-11-23T05:24:23.116Z,47.14
2023-11-23T05:27:26.137Z,47.23
2023-11-23T05:30:30.474Z,46.97
2023-11-23T05:33:33.449Z,47.47
2023-11-23T05:36:36.425Z,47.40
2023-11-23T05:39:43.433Z,47.60
2023-11-23T05:42:57.482Z,47.48
2023-11-23T05:46:06.088Z,47.51
2023-11-23T05:49:09.771Z,47.58
2023-11-23T05:52:12.688Z,47.72
2023-11-23T05:55:16.562Z,47.68
2023-11-23T05:58:19.425Z,47.74
2023-11-23T06:01:23.705Z,47.71
2023-11-23T06:04:26.826Z,47.58
2023-11-23T06:07:30.665Z,47.59
2023-11-23T06:10:35.533Z,47.67
2023-11-23T06:13:38.567Z,47.73
2023-11-23T06:16:42.838Z,47.66
2023-11-23T06:19:45.725Z,47.87
2023-11-23T06:22:49.491Z,47.91
2023-11-23T06:25:52.408Z,47.80
2023-11-23T06:28:55.317Z,47.86
2023-11-23T06:32:01.377Z,47.71
2023-11-23T06:35:06.013Z,47.89
2023-11-23T06:38:08.909Z,47.79
2023-11-23T06:41:19.620Z,47.92
2023-11-23T06:44:22.917Z,47.75
2023-11-23T06:47:27.218Z,47.84
2023-11-23T06:50:30.019Z,47.78
2023-11-23T06:53:33.000Z,47.88
2023-11-23T06:56:35.820Z,47.79
2023-11-23T06:59:38.705Z,48.01
2023-11-23T07:02:43.023Z,47.96
2023-11-23T07:05:45.906Z,47.77
2023-11-23T07:08:49.059Z,48.03
2023-11-23T07:11:55.430Z,47.95
2023-11-23T07:14:58.511Z,47.92
2023-11-23T07:18:02.943Z,47.92
2023-11-23T07:21:06.192Z,48.04
2023-11-23T07:24:09.564Z,47.99
2023-11-23T07:27:13.002Z,48.04
2023-11-23T07:30:16.033Z,48.02
2023-11-23T07:33:20.493Z,48.09
2023-11-23T07:36:25.440Z,48.11
2023-11-23T07:39:28.380Z,48.12
2023-11-23T07:42:31.322Z,48.06
2023-11-23T07:45:34.678Z,47.90
2023-11-23T07:48:39.084Z,48.03
2023-11-23T07:51:41.984Z,47.92
2023-11-23T07:54:45.340Z,47.89
2023-11-23T07:57:49.489Z,48.04
2023-11-23T08:00:52.443Z,47.99
2023-11-23T08:03:57.763Z,47.99
2023-11-23T08:07:01.756Z,47.93
2023-11-23T08:10:07.780Z,47.92
2023-11-23T08:13:10.656Z,48.19
2023-11-23T08:16:13.740Z,47.57
2023-11-23T08:19:18.225Z,47.50
2023-11-23T08:22:22.751Z,47.03
2023-11-23T08:25:25.635Z,46.65
2023-11-23T08:28:28.512Z,46.47
2023-11-23T08:31:31.402Z,46.24
2023-11-23T08:34:35.682Z,46.42
2023-11-23T08:37:38.586Z,46.05
2023-11-23T08:40:42.805Z,45.73
2023-11-23T08:44:05.575Z,45.70
2023-11-23T08:47:08.459Z,45.52
2023-11-23T08:50:14.731Z,45.99
2023-11-23T08:53:21.710Z,45.77
2023-11-23T08:56:24.600Z,45.51
2023-11-23T08:59:27.521Z,45.76
2023-11-23T09:02:30.456Z,45.39
2023-11-23T09:05:34.811Z,45.08
2023-11-23T09:08:37.721Z,45.54
2023-11-23T09:11:42.818Z,45.16
2023-11-23T09:14:49.516Z,45.39
2023-11-23T09:17:54.492Z,45.08
2023-11-23T09:21:01.103Z,45.02
2023-11-23T09:24:07.141Z,45.26
2023-11-23T09:27:11.244Z,45.28
2023-11-23T09:30:14.675Z,45.32
2023-11-23T09:33:20.477Z,44.84
2023-11-23T09:36:26.060Z,44.95
2023-11-23T09:39:29.135Z,44.87
2023-11-23T09:42:36.855Z,44.62
2023-11-23T09:45:39.886Z,44.72
2023-11-23T09:48:44.777Z,44.74
2023-11-23T09:51:50.698Z,44.62
2023-11-23T09:54:57.904Z,44.73
2023-11-23T09:58:00.886Z,44.85
2023-11-23T10:01:04.805Z,44.72
2023-11-23T10:04:07.972Z,44.95
2023-11-23T10:07:13.226Z,45.31
2023-11-23T10:10:16.433Z,44.89
2023-11-23T10:13:20.656Z,45.10
2023-11-23T10:16:23.638Z,44.62
2023-11-23T10:19:26.644Z,44.70
2023-11-23T10:22:32.119Z,45.07
2023-11-23T10:25:36.831Z,44.78
2023-11-23T10:28:40.013Z,44.82
2023-11-23T10:31:42.957Z,44.35
2023-11-23T10:34:48.002Z,45.00
2023-11-23T10:37:54.682Z,45.08
2023-11-23T10:41:00.143Z,45.02
2023-11-23T10:44:04.658Z,44.81
2023-11-23T10:47:10.624Z,45.13
2023-11-23T10:50:13.605Z,45.31
2023-11-23T10:53:18.021Z,45.30
2023-11-23T10:56:22.990Z,45.34
2023-11-23T10:59:26.380Z,45.71
2023-11-23T11:02:29.415Z,45.66
2023-11-23T11:05:32.997Z,45.93
2023-11-23T11:08:39.110Z,46.28
2023-11-23T11:11:44.315Z,46.32
2023-11-23T11:14:51.998Z,46.22
2023-11-23T11:18:08.005Z,46.43
2023-11-23T11:21:13.171Z,46.52
2023-11-23T11:24:21.724Z,46.59
2023-11-23T11:27:26.867Z,46.54
2023-11-23T11:30:35.150Z,46.69
2023-11-23T11:33:38.861Z,46.61
2023-11-23T11:36:42.181Z,46.63
2023-11-23T11:39:47.560Z,46.69
2023-11-23T11:42:52.026Z,46.68
2023-11-23T11:45:54.992Z,45.93
2023-11-23T11:48:59.193Z,46.36
2023-11-23T11:52:02.344Z,46.07
2023-11-23T11:55:07.519Z,45.92
2023-11-23T11:58:10.438Z,45.56
2023-11-23T12:01:13.822Z,45.15
2023-11-23T12:04:17.682Z,44.60
2023-11-23T12:07:20.865Z,44.80
2023-11-23T12:10:25.187Z,44.77
2023-11-23T12:13:28.247Z,44.67
2023-11-23T12:16:35.084Z,44.76
2023-11-23T12:19:38.072Z,44.83
2023-11-23T12:22:41.059Z,44.74
2023-11-23T12:25:45.382Z,44.30
2023-11-23T12:28:48.700Z,44.38
2023-11-23T12:31:51.594Z,45.12
2023-11-23T12:34:54.453Z,44.64
2023-11-23T12:37:59.309Z,45.10
2023-11-23T12:41:04.462Z,45.36
2023-11-23T12:44:07.396Z,45.57
2023-11-23T12:47:10.276Z,45.32
2023-11-23T12:50:13.158Z,45.15
2023-11-23T12:53:15.985Z,44.98
2023-11-23T12:56:20.327Z,45.85
2023-11-23T12:59:23.255Z,45.92
2023-11-23T13:02:26.150Z,45.76
2023-11-23T13:05:30.860Z,45.87
2023-11-23T13:08:33.699Z,46.08
2023-11-23T13:11:38.452Z,46.58
2023-11-23T13:14:42.775Z,46.61
2023-11-23T13:17:45.787Z,46.76
2023-11-23T13:20:49.035Z,46.81
2023-11-23T13:23:52.014Z,46.85
2023-11-23T13:26:57.219Z,46.99
2023-11-23T13:30:01.075Z,46.95
2023-11-23T13:33:13.623Z,46.85
2023-11-23T13:36:16.697Z,46.96
2023-11-23T13:39:20.851Z,46.88
2023-11-23T13:42:25.380Z,47.09
2023-11-23T13:45:28.480Z,47.02
2023-11-23T13:48:32.626Z,46.99
2023-11-23T13:51:36.095Z,46.98
2023-11-23T13:54:39.448Z,46.41
2023-11-23T13:57:43.840Z,46.29
2023-11-23T14:00:46.724Z,45.73
2023-11-23T14:03:50.361Z,45.90
2023-11-23T14:06:53.548Z,45.75
2023-11-23T14:09:56.356Z,45.47
2023-11-23T14:13:01.344Z,45.96
2023-11-23T14:16:05.418Z,45.84
2023-11-23T14:19:15.996Z,45.48
2023-11-23T14:22:20.026Z,45.71
2023-11-23T14:25:23.786Z,46.05
2023-11-23T14:28:28.139Z,46.53
2023-11-23T14:31:34.150Z,46.54
2023-11-23T14:34:37.255Z,46.47
2023-11-23T14:37:41.997Z,46.54
2023-11-23T14:40:47.757Z,46.35
2023-11-23T14:43:52.303Z,46.26
2023-11-23T14:46:56.664Z,46.42
2023-11-23T14:50:01.250Z,46.49
2023-11-23T14:53:05.178Z,46.12
2023-11-23T14:56:09.343Z,46.30
2023-11-23T14:59:13.652Z,46.04
2023-11-23T15:02:16.631Z,46.01
2023-11-23T15:05:20.005Z,46.16
2023-11-23T15:08:22.992Z,46.17
2023-11-23T15:11:25.830Z,45.77
2023-11-23T15:14:30.075Z,45.66
2023-11-23T15:17:33.448Z,45.74
2023-11-23T15:20:36.351Z,45.74
2023-11-23T15:23:39.520Z,45.48
2023-11-23T15:26:42.442Z,45.43
2023-11-23T15:29:46.672Z,45.67
2023-11-23T15:32:53.805Z,45.57
2023-11-23T15:35:57.383Z,45.34
2023-11-23T15:39:00.232Z,45.36
2023-11-23T15:42:04.529Z,45.69
2023-11-23T15:45:09.735Z,46.03
2023-11-23T15:48:13.000Z,45.98
2023-11-23T15:51:16.540Z,45.93
2023-11-23T15:54:20.423Z,46.25
2023-11-23T15:57:23.466Z,46.35
2023-11-23T16:00:27.850Z,46.45
2023-11-23T16:03:30.850Z,46.56
2023-11-23T16:06:38.282Z,46.15
2023-11-23T16:09:41.530Z,46.50
2023-11-23T16:12:45.584Z,46.84
2023-11-23T16:15:50.342Z,46.66
2023-11-23T16:18:53.737Z,46.69
2023-11-23T16:21:57.104Z,46.78
2023-11-23T16:25:03.173Z,47.03
2023-11-23T16:28:06.125Z,46.79
2023-11-23T16:31:10.499Z,46.56
2023-11-23T16:34:14.630Z,46.71
2023-11-23T16:37:17.620Z,46.70
2023-11-23T16:40:21.012Z,46.74
2023-11-23T16:43:23.931Z,46.60
2023-11-23T16:46:28.204Z,46.77
2023-11-23T16:49:31.190Z,46.75
2023-11-23T16:52:34.348Z,46.88
2023-11-23T16:55:38.633Z,46.78
2023-11-23T16:58:42.056Z,46.88
2023-11-23T17:01:47.529Z,46.84
2023-11-23T17:04:53.043Z,47.07
2023-11-23T17:07:58.258Z,46.48
2023-11-23T17:11:01.192Z,46.55
2023-11-23T17:14:04.658Z,46.78
2023-11-23T17:17:09.186Z,46.67
2023-11-23T17:20:14.221Z,46.72
2023-11-23T17:23:17.153Z,46.50
2023-11-23T17:26:20.446Z,46.53
2023-11-23T17:29:23.686Z,46.21
2023-11-23T17:32:27.962Z,45.96
2023-11-23T17:35:30.966Z,45.78
2023-11-23T17:38:35.092Z,45.98
2023-11-23T17:41:37.976Z,45.65
2023-11-23T17:44:41.096Z,45.50
2023-11-23T17:47:46.418Z,45.47
2023-11-23T17:50:49.518Z,45.19
2023-11-23T17:53:52.518Z,45.14
2023-11-23T17:56:56.703Z,45.30
2023-11-23T17:59:59.669Z,45.16
2023-11-23T18:03:03.998Z,45.24
2023-11-23T18:06:07.914Z,45.22
2023-11-23T18:09:10.926Z,45.26
2023-11-23T18:12:13.987Z,44.86
2023-11-23T18:15:16.878Z,45.09
2023-11-23T18:18:24.189Z,45.24
2023-11-23T18:21:28.299Z,45.54
2023-11-23T18:24:31.428Z,45.45
2023-11-23T18:27:34.393Z,44.96
2023-11-23T18:30:37.463Z,45.15
2023-11-23T18:33:42.035Z,44.95
2023-11-23T18:36:46.528Z,44.96
2023-11-23T18:39:50.220Z,44.81
2023-11-23T18:42:54.791Z,44.88
2023-11-23T18:45:58.010Z,44.83
2023-11-23T18:49:03.958Z,44.85
2023-11-23T18:52:07.239Z,44.60
2023-11-23T18:55:11.389Z,44.68
2023-11-23T18:58:14.413Z,44.63
2023-11-23T19:01:18.762Z,44.75
2023-11-23T19:04:23.831Z,44.59
2023-11-23T19:07:26.988Z,44.54
2023-11-23T19:10:29.835Z,44.57
2023-11-23T19:13:32.722Z,44.59
2023-11-23T19:16:35.670Z,44.42
2023-11-23T19:19:40.638Z,44.65
2023-11-23T19:22:43.913Z,44.67
2023-11-23T19:25:48.067Z,44.74
2023-11-23T19:28:51.652Z,45.07
2023-11-23T19:31:56.027Z,45.48
2023-11-23T19:35:00.743Z,45.36
2023-11-23T19:38:05.392Z,45.41
2023-11-23T19:41:10.810Z,45.65
2023-11-23T19:44:14.309Z,45.80
2023-11-23T19:47:18.067Z,45.68
2023-11-23T19:50:23.125Z,45.84
2023-11-23T19:53:27.963Z,46.06
2023-11-23T19:56:30.885Z,46.08
2023-11-23T19:59:33.785Z,45.99
2023-11-23T20:02:36.822Z,46.11
2023-11-23T20:05:42.326Z,46.01
2023-11-23T20:08:45.429Z,46.15
2023-11-23T20:11:48.285Z,46.22
2023-11-23T20:14:51.194Z,46.18
2023-11-23T20:17:54.149Z,46.27
2023-11-23T20:20:58.500Z,46.22
2023-11-23T20:24:01.380Z,46.33
2023-11-23T20:27:04.311Z,46.04
2023-11-23T20:30:07.862Z,46.46
2023-11-23T20:33:10.829Z,46.12
2023-11-23T20:36:15.206Z,46.46
2023-11-23T20:39:18.169Z,46.22
2023-11-23T20:42:21.346Z,46.26
2023-11-23T20:45:26.025Z,46.08
2023-11-23T20:48:28.879Z,46.36
2023-11-23T20:51:33.215Z,46.33
2023-11-23T20:54:36.207Z,45.74
2023-11-23T20:57:39.519Z,45.68
2023-11-23T21:00:42.717Z,45.44
2023-11-23T21:03:46.179Z,45.45
2023-11-23T21:06:58.955Z,45.09
2023-11-23T21:10:05.870Z,45.13
2023-11-23T21:13:08.861Z,44.86
2023-11-23T21:16:13.371Z,45.09
2023-11-23T21:19:16.267Z,44.79
2023-11-23T21:22:20.707Z,44.70
2023-11-23T21:25:23.548Z,44.87
2023-11-23T21:28:26.419Z,44.71
2023-11-23T21:31:29.657Z,44.77
2023-11-23T21:34:32.609Z,44.74
2023-11-23T21:37:37.133Z,44.78
2023-11-23T21:40:40.042Z,44.44
2023-11-23T21:43:43.408Z,45.10
2023-11-23T21:46:46.446Z,44.67
2023-11-23T21:49:49.419Z,44.79
2023-11-23T21:52:55.230Z,44.98
2023-11-23T21:55:58.356Z,45.20
2023-11-23T21:59:01.238Z,45.05
2023-11-23T22:02:05.322Z,45.31
2023-11-23T22:05:08.695Z,45.20
2023-11-23T22:08:13.020Z,44.96
2023-11-23T22:11:15.903Z,45.04
2023-11-23T22:14:19.164Z,44.37
2023-11-23T22:17:22.233Z,44.81
2023-11-23T22:20:25.369Z,44.89
2023-11-23T22:23:29.984Z,45.22
2023-11-23T22:26:33.165Z,44.80
2023-11-23T22:29:36.243Z,44.88
2023-11-23T22:32:41.043Z,45.10
2023-11-23T22:35:44.867Z,44.72
2023-11-23T22:38:50.077Z,44.79
2023-11-23T22:41:53.174Z,44.99
2023-11-23T22:44:56.315Z,44.90
2023-11-23T22:47:59.222Z,44.98
2023-11-23T22:51:02.202Z,44.75
2023-11-23T22:54:07.361Z,45.06
2023-11-23T22:57:10.305Z,44.92
2023-11-23T23:00:15.656Z,44.94
2023-11-23T23:03:19.333Z,44.49
2023-11-23T23:06:22.418Z,44.60
2023-11-23T23:09:28.354Z,44.47
2023-11-23T23:12:31.871Z,44.66
2023-11-23T23:15:34.867Z,44.36
2023-11-23T23:18:37.940Z,44.80
2023-11-23T23:21:40.900Z,44.68
2023-11-23T23:24:45.230Z,44.13
2023-11-23T23:27:48.136Z,44.68
2023-11-23T23:30:51.002Z,44.66
2023-11-23T23:33:53.935Z,44.44
2023-11-23T23:36:56.889Z,44.22
2023-11-23T23:40:01.139Z,44.46
2023-11-23T23:43:04.083Z,44.73
2023-11-23T23:46:07.048Z,44.44
2023-11-23T23:49:09.958Z,44.27
2023-11-23T23:52:12.854Z,44.59
2023-11-23T23:55:17.247Z,44.45
2023-11-23T23:58:20.144Z,44.10
